createdAt,value
2019-02-27T00:01:34.844Z,100686.30
2019-02-27T00:04:06.973Z,100679.75
2019-02-27T00:06:37.373Z,100692.55
2019-02-27T00:09:27.150Z,100685.75
2019-02-27T00:12:19.353Z,100686.64
2019-02-27T00:14:54.484Z,100687.44
2019-02-27T00:17:44.293Z,100689.51
2019-02-27T00:20:36.663Z,100686.12
2019-02-27T00:23:16.946Z,100693.81
2019-02-27T00:25:47.302Z,100689.99
2019-02-27T00:28:37.078Z,100697.95
2019-02-27T00:31:26.883Z,100719.71
2019-02-27T00:33:59.849Z,100703.61
2019-02-27T00:39:45.283Z,100699.27
2019-02-27T00:42:35.051Z,100704.30
2019-02-27T00:45:24.875Z,100715.25
2019-02-27T00:47:55.240Z,100685.95
2019-02-27T00:50:45.033Z,100691.88
2019-02-27T00:53:34.797Z,100685.91
2019-02-27T00:56:05.268Z,100677.78
2019-02-27T00:58:54.999Z,100679.43
2019-02-27T01:01:25.375Z,100672.60
2019-02-27T01:04:15.138Z,100665.36
2019-02-27T01:07:04.948Z,100674.21
2019-02-27T01:09:55.706Z,100668.66
2019-02-27T01:12:26.118Z,100663.11
2019-02-27T01:15:15.865Z,100671.17
2019-02-27T01:17:46.268Z,100681.41
2019-02-27T01:20:55.217Z,100677.91
2019-02-27T01:23:45.083Z,100667.64
2019-02-27T01:26:34.883Z,100662.05
2019-02-27T01:29:06.864Z,100664.97
2019-02-27T01:31:37.282Z,100653.91
2019-02-27T01:34:27.046Z,100653.05
2019-02-27T01:37:16.831Z,100647.08
2019-02-27T01:39:48.887Z,100644.09
2019-02-27T01:42:19.292Z,100631.34
2019-02-27T01:45:11.863Z,100637.71
2019-02-27T01:47:42.262Z,100645.19
2019-02-27T01:50:36.596Z,100639.27
2019-02-27T01:53:08.422Z,100633.31
2019-02-27T01:55:58.166Z,100643.09
2019-02-27T01:58:28.610Z,100629.04
2019-02-27T02:01:18.374Z,100632.77
2019-02-27T02:04:08.193Z,100631.50
2019-02-27T02:06:57.978Z,100633.47
2019-02-27T02:09:49.148Z,100635.14
2019-02-27T02:12:26.434Z,100624.50
2019-02-27T02:15:36.008Z,100622.73
2019-02-27T02:18:45.730Z,100625.22
2019-02-27T02:22:06.125Z,100614.59
2019-02-27T02:25:06.263Z,100609.86
2019-02-27T02:28:15.496Z,100612.27
2019-02-27T02:31:43.416Z,100611.55
2019-02-27T02:35:14.837Z,100612.62
2019-02-27T02:38:27.219Z,100602.08
2019-02-27T02:41:35.711Z,100601.44
2019-02-27T02:44:44.182Z,100603.98
2019-02-27T02:47:44.734Z,100606.52
2019-02-27T02:50:54.366Z,100613.19
2019-02-27T02:54:08.902Z,100613.09
2019-02-27T02:57:01.965Z,100618.89
2019-02-27T03:00:01.091Z,100622.70
2019-02-27T03:03:01.794Z,100620.45
2019-02-27T03:06:10.425Z,100619.95
2019-02-27T03:09:38.294Z,100629.14
2019-02-27T03:12:56.642Z,100631.30
2019-02-27T03:15:51.755Z,100637.30
2019-02-27T03:19:05.047Z,100631.23
2019-02-27T03:22:04.700Z,100629.20
2019-02-27T03:24:56.461Z,100628.56
2019-02-27T03:28:24.328Z,100624.63
2019-02-27T03:31:57.542Z,100626.19
2019-02-27T03:34:52.653Z,100623.89
2019-02-27T03:38:01.259Z,100623.30
2019-02-27T03:41:29.146Z,100610.02
2019-02-27T03:44:57.238Z,100615.56
2019-02-27T03:48:10.477Z,100614.99
2019-02-27T03:51:24.679Z,100621.58
2019-02-27T03:54:33.110Z,100615.98
2019-02-27T03:57:42.181Z,100619.90
2019-02-27T04:01:10.068Z,100636.15
2019-02-27T04:04:37.928Z,100630.81
2019-02-27T04:07:35.245Z,100625.78
2019-02-27T04:10:30.823Z,100624.34
2019-02-27T04:13:10.303Z,100627.70
2019-02-27T04:16:00.161Z,100636.08
2019-02-27T04:18:28.868Z,100630.20
2019-02-27T04:21:00.880Z,100633.89
2019-02-27T04:23:31.323Z,100628.51
2019-02-27T04:26:21.069Z,100624.34
2019-02-27T04:28:51.469Z,100630.42
2019-02-27T04:31:41.232Z,100626.61
2019-02-27T04:34:33.189Z,100630.88
2019-02-27T04:37:22.474Z,100628.34
2019-02-27T04:40:12.287Z,100622.78
2019-02-27T04:43:02.029Z,100626.04
2019-02-27T04:45:51.800Z,100642.32
2019-02-27T04:48:29.929Z,100641.98
2019-02-27T04:51:14.582Z,100647.25
2019-02-27T04:53:55.576Z,100656.83
2019-02-27T04:59:49.735Z,100652.38
2019-02-27T05:02:31.263Z,100639.45
2019-02-27T05:05:22.002Z,100632.63
2019-02-27T05:07:54.475Z,100637.66
2019-02-27T05:10:40.532Z,100631.94
2019-02-27T05:13:21.776Z,100629.73
2019-02-27T05:16:14.168Z,100645.45
2019-02-27T05:22:06.176Z,100625.00
2019-02-27T05:24:55.955Z,100638.16
2019-02-27T05:27:27.415Z,100638.68
2019-02-27T05:30:18.132Z,100640.83
2019-02-27T05:32:50.194Z,100650.20
2019-02-27T05:35:39.979Z,100641.70
2019-02-27T05:38:10.392Z,100649.38
2019-02-27T05:41:00.629Z,100639.09
2019-02-27T05:43:37.754Z,100639.50
2019-02-27T05:46:27.557Z,100642.38
2019-02-27T05:49:17.337Z,100643.77
2019-02-27T05:52:07.144Z,100650.19
2019-02-27T05:54:56.895Z,100648.93
2019-02-27T05:57:27.285Z,100649.84
2019-02-27T06:00:18.270Z,100653.54
2019-02-27T06:02:48.656Z,100656.78
2019-02-27T06:05:38.409Z,100652.55
2019-02-27T06:08:28.178Z,100643.70
2019-02-27T06:11:17.928Z,100636.99
2019-02-27T06:13:48.327Z,100644.63
2019-02-27T06:16:40.696Z,100640.52
2019-02-27T06:19:23.042Z,100640.31
2019-02-27T06:22:12.858Z,100632.34
2019-02-27T06:24:45.726Z,100651.06
2019-02-27T06:27:37.223Z,100638.84
2019-02-27T06:30:14.918Z,100638.03
2019-02-27T06:32:45.463Z,100638.08
2019-02-27T06:35:35.433Z,100631.77
2019-02-27T06:38:25.891Z,100634.63
2019-02-27T06:41:09.820Z,100645.52
2019-02-27T06:43:40.208Z,100643.42
2019-02-27T06:46:10.759Z,100656.38
2019-02-27T06:48:43.610Z,100658.16
2019-02-27T06:51:33.367Z,100661.48
2019-02-27T06:54:18.470Z,100657.80
2019-02-27T06:56:58.998Z,100664.63
2019-02-27T06:59:31.090Z,100665.86
2019-02-27T07:02:21.662Z,100669.07
2019-02-27T07:05:03.756Z,100666.16
2019-02-27T07:07:53.624Z,100677.58
2019-02-27T07:10:43.395Z,100664.23
2019-02-27T07:13:33.229Z,100676.91
2019-02-27T07:16:35.089Z,100674.70
2019-02-27T07:19:06.198Z,100684.12
2019-02-27T07:21:36.630Z,100680.54
2019-02-27T07:24:26.434Z,100688.20
2019-02-27T07:27:16.225Z,100688.67
2019-02-27T07:30:07.467Z,100700.40
2019-02-27T07:32:39.243Z,100699.06
2019-02-27T07:35:29.327Z,100700.81
2019-02-27T07:38:13.803Z,100698.70
2019-02-27T07:41:03.606Z,100706.81
2019-02-27T07:43:53.361Z,100707.98
2019-02-27T07:46:43.131Z,100706.02
2019-02-27T07:49:32.869Z,100705.19
2019-02-27T07:52:22.662Z,100698.36
2019-02-27T07:55:21.693Z,100701.86
2019-02-27T07:57:51.119Z,100691.62
2019-02-27T08:00:42.802Z,100695.86
2019-02-27T08:03:24.077Z,100687.94
2019-02-27T08:06:13.844Z,100694.48
2019-02-27T08:09:03.908Z,100693.09
2019-02-27T08:11:53.677Z,100689.27
2019-02-27T08:14:43.449Z,100686.48
2019-02-27T08:17:33.232Z,100696.17
2019-02-27T08:20:23.002Z,100691.98
2019-02-27T08:23:12.796Z,100680.55
2019-02-27T08:26:05.005Z,100676.74
2019-02-27T08:28:48.408Z,100677.51
2019-02-27T08:31:38.220Z,100676.45
2019-02-27T08:34:28.026Z,100674.93
2019-02-27T08:37:17.867Z,100673.63
2019-02-27T08:40:07.887Z,100686.89
2019-02-27T08:42:40.558Z,100679.67
2019-02-27T08:45:30.899Z,100688.17
2019-02-27T08:48:20.713Z,100681.68
2019-02-27T08:51:10.545Z,100680.09
2019-02-27T08:54:00.692Z,100678.41
2019-02-27T08:56:50.474Z,100670.80
2019-02-27T08:59:40.769Z,100675.11
2019-02-27T09:02:24.166Z,100676.80
2019-02-27T09:05:00.277Z,100679.38
2019-02-27T09:07:50.017Z,100674.75
2019-02-27T09:10:39.920Z,100682.91
2019-02-27T09:13:29.699Z,100667.17
2019-02-27T09:16:19.502Z,100665.56
2019-02-27T09:19:10.101Z,100666.41
2019-02-27T09:21:46.874Z,100666.89
2019-02-27T09:27:45.459Z,100643.45
2019-02-27T09:30:35.236Z,100650.82
2019-02-27T09:33:25.042Z,100631.64
2019-02-27T09:36:14.963Z,100632.52
2019-02-27T09:42:09.946Z,100616.28
2019-02-27T09:44:59.698Z,100622.27
2019-02-27T09:47:49.510Z,100618.42
2019-02-27T09:50:47.649Z,100626.52
2019-02-27T09:53:27.250Z,100618.86
2019-02-27T09:56:17.061Z,100626.98
2019-02-27T09:59:06.938Z,100610.34
2019-02-27T10:01:57.317Z,100619.29
2019-02-27T10:04:39.741Z,100613.30
2019-02-27T10:07:10.170Z,100604.77
2019-02-27T10:09:59.968Z,100604.73
2019-02-27T10:12:49.784Z,100618.80
2019-02-27T10:15:40.521Z,100620.97
2019-02-27T10:18:10.983Z,100628.62
2019-02-27T10:21:00.814Z,100631.65
2019-02-27T10:23:50.584Z,100632.90
2019-02-27T10:26:40.398Z,100612.83
2019-02-27T10:29:30.210Z,100616.63
2019-02-27T10:32:20.018Z,100614.04
2019-02-27T10:35:09.973Z,100602.53
2019-02-27T10:37:59.758Z,100612.30
2019-02-27T10:40:49.548Z,100602.93
2019-02-27T10:43:39.348Z,100596.11
2019-02-27T10:46:29.156Z,100588.90
2019-02-27T10:49:21.350Z,100588.38
2019-02-27T10:51:56.467Z,100580.72
2019-02-27T10:54:46.276Z,100582.34
2019-02-27T10:57:38.421Z,100584.48
2019-02-27T11:00:37.958Z,100581.48
2019-02-27T11:03:27.760Z,100567.74
2019-02-27T11:06:17.531Z,100563.03
2019-02-27T11:09:31.607Z,100562.09
2019-02-27T11:12:03.161Z,100565.83
2019-02-27T11:14:52.950Z,100559.06
2019-02-27T11:17:42.754Z,100546.69
2019-02-27T11:20:32.551Z,100535.99
2019-02-27T11:23:22.395Z,100541.53
2019-02-27T11:26:12.148Z,100526.53
2019-02-27T11:29:01.951Z,100509.84
2019-02-27T11:31:32.417Z,100517.91
2019-02-27T11:34:22.224Z,100507.99
2019-02-27T11:37:13.840Z,100504.58
2019-02-27T11:39:54.859Z,100507.80
2019-02-27T11:42:25.289Z,100502.23
2019-02-27T11:45:15.215Z,100488.56
2019-02-27T11:48:05.056Z,100507.42
2019-02-27T11:50:35.460Z,100496.13
2019-02-27T11:53:25.220Z,100503.02
2019-02-27T11:56:15.035Z,100482.86
2019-02-27T11:58:47.135Z,100482.69
2019-02-27T12:01:36.970Z,100484.67
2019-02-27T12:04:26.748Z,100473.99
2019-02-27T12:07:17.484Z,100482.92
2019-02-27T12:10:10.285Z,100483.15
2019-02-27T12:13:01.323Z,100466.36
2019-02-27T12:15:51.548Z,100459.94
2019-02-27T12:18:41.398Z,100460.83
2019-02-27T12:21:31.160Z,100450.19
2019-02-27T12:24:20.987Z,100450.97
2019-02-27T12:30:38.198Z,100432.19
2019-02-27T12:33:29.390Z,100438.84
2019-02-27T12:36:10.539Z,100429.80
2019-02-27T12:39:15.121Z,100421.52
2019-02-27T12:41:45.573Z,100421.44
2019-02-27T12:44:16.069Z,100414.02
2019-02-27T12:47:06.302Z,100412.16
2019-02-27T12:49:48.919Z,100405.91
2019-02-27T12:52:38.726Z,100403.01
2019-02-27T12:55:28.710Z,100394.42
2019-02-27T12:58:18.526Z,100390.89
2019-02-27T13:01:08.343Z,100389.87
2019-02-27T13:03:58.183Z,100384.70
2019-02-27T13:06:47.967Z,100376.81
2019-02-27T13:09:37.764Z,100382.35
2019-02-27T13:12:27.586Z,100373.77
2019-02-27T13:15:19.082Z,100363.39
2019-02-27T13:18:08.855Z,100368.93
2019-02-27T13:24:04.045Z,100369.95
2019-02-27T13:26:53.885Z,100363.79
2019-02-27T13:29:44.595Z,100355.77
2019-02-27T13:32:27.560Z,100349.86
2019-02-27T13:35:10.874Z,100351.95
2019-02-27T13:38:01.127Z,100339.36
2019-02-27T13:40:50.927Z,100340.05
2019-02-27T13:43:40.766Z,100343.55
2019-02-27T13:46:11.141Z,100332.80
2019-02-27T13:49:00.929Z,100327.33
2019-02-27T13:51:50.676Z,100330.55
2019-02-27T13:54:40.480Z,100321.36
2019-02-27T13:57:30.232Z,100322.37
2019-02-27T14:00:39.122Z,100316.44
2019-02-27T14:03:28.907Z,100309.11
2019-02-27T14:06:18.738Z,100312.06
2019-02-27T14:09:08.806Z,100305.91
2019-02-27T14:11:59.369Z,100304.95
2019-02-27T14:14:40.891Z,100299.37
2019-02-27T14:17:30.683Z,100303.44
2019-02-27T14:20:01.149Z,100302.45
2019-02-27T14:22:50.957Z,100303.77
2019-02-27T14:25:40.715Z,100294.28
2019-02-27T14:31:15.260Z,100286.86
2019-02-27T14:34:05.036Z,100275.98
2019-02-27T14:36:54.858Z,100279.91
2019-02-27T14:39:44.619Z,100289.43
2019-02-27T14:42:34.457Z,100278.98
2019-02-27T14:45:24.287Z,100278.50
2019-02-27T14:48:14.148Z,100281.43
2019-02-27T14:51:07.402Z,100275.97
2019-02-27T14:53:46.998Z,100273.91
2019-02-27T14:56:36.809Z,100267.29
2019-02-27T14:59:07.227Z,100259.64
2019-02-27T15:01:57.000Z,100253.11
2019-02-27T15:04:46.842Z,100248.81
2019-02-27T15:07:36.602Z,100242.84
2019-02-27T15:13:32.088Z,100242.60
2019-02-27T15:16:21.951Z,100239.23
2019-02-27T15:18:55.059Z,100231.58
2019-02-27T15:21:43.934Z,100226.91
2019-02-27T15:24:27.427Z,100226.36
2019-02-27T15:27:19.506Z,100221.86
2019-02-27T15:30:00.403Z,100222.77
2019-02-27T15:32:50.220Z,100215.81
2019-02-27T15:35:40.042Z,100218.91
2019-02-27T15:38:11.754Z,100215.81
2019-02-27T15:40:48.116Z,100211.92
2019-02-27T15:43:18.580Z,100212.63
2019-02-27T15:46:08.395Z,100208.56
2019-02-27T15:48:59.845Z,100212.45
2019-02-27T15:51:41.223Z,100211.34
2019-02-27T15:54:31.013Z,100205.02
2019-02-27T15:57:01.489Z,100205.08
2019-02-27T15:59:51.245Z,100197.70
2019-02-27T16:02:41.273Z,100193.19
2019-02-27T16:05:31.730Z,100194.25
2019-02-27T16:08:15.299Z,100184.86
2019-02-27T16:10:54.760Z,100185.56
2019-02-27T16:13:34.763Z,100191.43
2019-02-27T16:16:11.931Z,100186.67
2019-02-27T16:19:01.718Z,100194.83
2019-02-27T16:21:56.867Z,100196.27
2019-02-27T16:24:53.372Z,100193.09
2019-02-27T16:27:43.162Z,100185.55
2019-02-27T16:30:33.144Z,100188.73
2019-02-27T16:33:24.021Z,100178.02
2019-02-27T16:36:06.328Z,100176.97
2019-02-27T16:38:36.767Z,100176.20
2019-02-27T16:41:28.978Z,100168.06
2019-02-27T16:44:11.097Z,100168.10
2019-02-27T16:46:53.050Z,100169.37
2019-02-27T16:49:42.868Z,100173.14
2019-02-27T16:52:32.681Z,100170.05
2019-02-27T16:55:23.311Z,100169.45
2019-02-27T16:57:57.498Z,100165.78
2019-02-27T17:00:46.301Z,100165.53
2019-02-27T17:03:16.725Z,100164.88
2019-02-27T17:05:47.218Z,100159.94
2019-02-27T17:08:37.040Z,100161.75
2019-02-27T17:11:29.416Z,100156.73
2019-02-27T17:14:09.841Z,100157.23
2019-02-27T17:16:59.659Z,100152.17
2019-02-27T17:19:30.197Z,100145.45
2019-02-27T17:22:20.011Z,100143.80
2019-02-27T17:25:10.670Z,100139.98
2019-02-27T17:28:00.492Z,100143.85
2019-02-27T17:30:50.311Z,100139.59
2019-02-27T17:33:40.144Z,100148.19
2019-02-27T17:36:16.313Z,100136.73
2019-02-27T17:39:07.375Z,100136.31
2019-02-27T17:41:57.259Z,100129.13
2019-02-27T17:44:27.981Z,100135.09
2019-02-27T17:47:17.831Z,100131.25
2019-02-27T17:49:57.477Z,100129.16
2019-02-27T17:52:37.662Z,100127.89
2019-02-27T17:55:27.512Z,100126.62
2019-02-27T17:58:17.323Z,100122.79
2019-02-27T18:03:51.507Z,100131.32
2019-02-27T18:06:41.426Z,100125.77
2019-02-27T18:09:31.298Z,100127.48
2019-02-27T18:12:21.652Z,100125.33
2019-02-27T18:14:58.809Z,100111.31
2019-02-27T18:17:48.774Z,100109.59
2019-02-27T18:20:24.130Z,100112.16
2019-02-27T18:23:10.784Z,100102.81
2019-02-27T18:26:00.671Z,100099.40
2019-02-27T18:28:50.505Z,100095.56
2019-02-27T18:31:40.338Z,100097.61
2019-02-27T18:34:30.117Z,100088.28
2019-02-27T18:37:19.977Z,100086.58
2019-02-27T18:40:11.195Z,100077.21
2019-02-27T18:45:48.240Z,100066.16
2019-02-27T18:48:29.008Z,100063.17
2019-02-27T18:51:18.989Z,100058.50
2019-02-27T18:53:49.446Z,100058.92
2019-02-27T18:56:40.351Z,100059.76
2019-02-27T18:59:22.198Z,100060.59
2019-02-27T19:02:12.127Z,100047.87
2019-02-27T19:05:01.962Z,100047.88
2019-02-27T19:07:54.852Z,100041.13
2019-02-27T19:10:29.485Z,100032.63
2019-02-27T19:13:19.320Z,100035.16
2019-02-27T19:16:09.113Z,100030.42
2019-02-27T19:18:58.908Z,100021.04
2019-02-27T19:22:11.069Z,100014.20
2019-02-27T19:24:51.610Z,100008.66
2019-02-27T19:30:46.614Z,100008.62
2019-02-27T19:33:36.570Z,100005.59
2019-02-27T19:36:30.494Z,100005.61
2019-02-27T19:39:09.118Z,100005.57
2019-02-27T19:41:58.938Z,99998.38
2019-02-27T19:44:48.741Z,100000.94
2019-02-27T19:47:57.604Z,99997.17
2019-02-27T19:50:47.468Z,99997.93
2019-02-27T19:53:39.589Z,99988.20
2019-02-27T19:56:20.425Z,99982.62
2019-02-27T19:59:10.405Z,99986.93
2019-02-27T20:02:00.240Z,99980.61
2019-02-27T20:04:50.131Z,99977.61
2019-02-27T20:07:40.068Z,99978.49
2019-02-27T20:10:32.990Z,99979.36
2019-02-27T20:13:12.694Z,99976.81
2019-02-27T20:19:07.886Z,99964.95
2019-02-27T20:21:58.611Z,99957.73
2019-02-27T20:24:42.997Z,99947.11
2019-02-27T20:27:18.396Z,99940.31
2019-02-27T20:29:48.799Z,99930.97
2019-02-27T20:32:38.617Z,99933.55
2019-02-27T20:35:28.673Z,99931.43
2019-02-27T20:41:02.335Z,99925.51
2019-02-27T20:43:34.349Z,99922.56
2019-02-27T20:46:24.673Z,99914.86
2019-02-27T20:49:10.377Z,99911.47
2019-02-27T20:51:49.940Z,99919.12
2019-02-27T20:54:39.696Z,99916.56
2019-02-27T20:57:29.475Z,99919.98
2019-02-27T21:03:02.815Z,99908.92
2019-02-27T21:05:52.626Z,99900.84
2019-02-27T21:08:42.464Z,99891.03
2019-02-27T21:11:32.393Z,99886.79
2019-02-27T21:14:23.610Z,99869.80
2019-02-27T21:17:04.692Z,99866.40
2019-02-27T21:19:54.523Z,99862.17
2019-02-27T21:22:44.388Z,99856.64
2019-02-27T21:25:34.243Z,99856.61
2019-02-27T21:28:07.572Z,99860.01
2019-02-27T21:30:52.032Z,99858.73
2019-02-27T21:33:30.146Z,99860.45
2019-02-27T21:36:19.896Z,99861.73
2019-02-27T21:39:09.666Z,99855.41
2019-02-27T21:41:42.320Z,99848.16
2019-02-27T21:44:31.510Z,99846.48
2019-02-27T21:47:01.964Z,99837.12
2019-02-27T21:49:32.824Z,99834.58
2019-02-27T21:52:15.939Z,99834.98
2019-02-27T21:55:05.941Z,99835.40
2019-02-27T21:57:58.039Z,99839.19
2019-02-27T22:00:38.729Z,99836.17
2019-02-27T22:03:09.195Z,99836.17
2019-02-27T22:05:58.944Z,99834.88
2019-02-27T22:08:48.788Z,99828.88
2019-02-27T22:11:38.564Z,99825.84
2019-02-27T22:14:28.337Z,99825.35
2019-02-27T22:17:18.131Z,99823.61
2019-02-27T22:20:08.099Z,99819.34
2019-02-27T22:22:57.939Z,99812.45
2019-02-27T22:25:47.736Z,99800.17
2019-02-27T22:28:37.501Z,99799.30
2019-02-27T22:31:27.291Z,99795.84
2019-02-27T22:34:17.069Z,99785.63
2019-02-27T22:37:06.182Z,99774.14
2019-02-27T22:39:55.924Z,99779.63
2019-02-27T22:42:48.423Z,99772.41
2019-02-27T22:45:40.480Z,99775.73
2019-02-27T22:48:19.993Z,99773.97
2019-02-27T22:51:12.604Z,99771.38
2019-02-27T22:53:52.995Z,99765.84
2019-02-27T22:56:42.799Z,99762.75
2019-02-27T22:59:34.082Z,99756.87
2019-02-27T23:02:16.145Z,99762.88
2019-02-27T23:08:08.324Z,99751.54
2019-02-27T23:14:02.236Z,99748.08
2019-02-27T23:16:32.594Z,99736.55
2019-02-27T23:19:22.319Z,99735.61
2019-02-27T23:22:12.100Z,99735.59
2019-02-27T23:25:02.003Z,99730.95
2019-02-27T23:27:32.369Z,99726.27
2019-02-27T23:30:22.187Z,99727.92
2019-02-27T23:33:11.960Z,99715.20
2019-02-27T23:35:42.355Z,99715.21
2019-02-27T23:38:34.665Z,99713.03
2019-02-27T23:41:15.120Z,99710.81
2019-02-27T23:44:05.469Z,99706.54
2019-02-27T23:46:51.351Z,99695.83
2019-02-27T23:49:31.292Z,99700.88
2019-02-27T23:52:22.393Z,99695.87
2019-02-27T23:55:12.527Z,99690.80
2019-02-27T23:58:02.359Z,99686.58
